Time;durP1;ratioP1;P1;durP2;ratioP2;P2;SDS_P1;SDS_P2;PMS_P1;PMS_P2;Temp;Humidity;BMP_temperature;BMP_pressure;BME280_temperature;BME280_humidity;BME280_pressure;Samples;Min_cycle;Max_cycle;Signal;HPM_P1;HPM_P2
2022/11/22 03:18:06;;;;;;;37.03;15.07;;;3.20;99.90;;;;;;6277860;22;20474;-86
2022/11/22 03:20:37;;;;;;;39.60;16.23;;;4.50;99.90;;;;;;6306044;22;20022;-86
2022/11/22 03:23:09;;;;;;;41.40;16.37;;;3.10;99.90;;;;;;6277951;22;20015;-85
2022/11/22 03:25:50;;;;;;;38.30;15.77;;;3.80;99.90;;;;;;6278418;22;20015;-85
2022/11/22 03:28:37;;;;;;;41.27;16.27;;;3.00;99.90;;;;;;6278655;22;20038;-86
2022/11/22 03:31:27;;;;;;;38.30;15.60;;;4.30;99.90;;;;;;6305457;22;20011;-85
2022/11/22 03:34:12;;;;;;;38.00;15.90;;;3.10;99.90;;;;;;6278647;22;20017;-86
2022/11/22 03:36:53;;;;;;;35.43;16.00;;;3.00;99.90;;;;;;6306000;22;20351;-85
2022/11/22 03:39:18;;;;;;;35.73;15.83;;;4.40;99.90;;;;;;6305162;22;20094;-86
2022/11/22 03:42:06;;;;;;;40.50;15.97;;;3.50;99.90;;;;;;6278153;22;20047;-86
2022/11/22 03:44:52;;;;;;;38.07;15.47;;;3.40;99.90;;;;;;6277730;22;20007;-85
2022/11/22 03:47:32;;;;;;;34.77;15.00;;;3.30;99.90;;;;;;6278406;22;20046;-86
2022/11/22 03:50:16;;;;;;;38.63;15.93;;;3.20;99.90;;;;;;6305632;22;20023;-85
2022/11/22 03:53:07;;;;;;;37.15;15.85;;;2.90;99.90;;;;;;6278581;22;20466;-85
2022/11/22 03:55:45;;;;;;;38.23;15.73;;;3.30;99.90;;;;;;6307801;22;20086;-85
2022/11/22 03:58:11;;;;;;;36.07;15.47;;;5.60;99.90;;;;;;6279598;22;20052;-85
2022/11/22 04:00:52;;;;;;;35.57;15.13;;;3.20;99.90;;;;;;6307215;22;20030;-85
2022/11/22 04:03:33;;;;;;;39.03;15.30;;;3.60;99.90;;;;;;6280608;22;20017;-85
2022/11/22 04:05:58;;;;;;;35.33;15.07;;;5.20;99.90;;;;;;6282920;22;20072;-86
2022/11/22 04:08:39;;;;;;;35.43;15.47;;;3.60;99.90;;;;;;6282438;22;20011;-86
2022/11/22 04:11:23;;;;;;;37.53;15.80;;;3.00;99.90;;;;;;6284445;22;20019;-85
2022/11/22 04:16:36;;;;;;;33.60;15.27;;;4.00;99.90;;;;;;6280842;22;20448;-85
2022/11/22 04:19:17;;;;;;;40.43;16.73;;;4.00;99.90;;;;;;6280892;22;20015;-85
2022/11/22 04:21:42;;;;;;;39.57;15.97;;;5.20;99.90;;;;;;6283446;22;20411;-86
2022/11/22 04:27:18;;;;;;;35.67;14.93;;;3.90;99.90;;;;;;6307901;22;20019;-85
2022/11/22 04:29:43;;;;;;;36.92;15.48;;;4.20;99.90;;;;;;6274829;22;20531;-85
2022/11/22 04:34:57;;;;;;;34.60;15.37;;;3.10;99.90;;;;;;6274948;22;20051;-85
2022/11/22 04:37:23;;;;;;;33.90;14.73;;;3.50;99.90;;;;;;6277048;22;20015;-85
2022/11/22 04:39:55;;;;;;;33.37;15.10;;;5.20;99.90;;;;;;6275449;22;20193;-85
2022/11/22 04:45:05;;;;;;;;;;;3.20;99.90;;;;;;6280514;22;20020;-85
2022/11/22 04:53:28;;;;;;;37.07;14.73;;;3.70;99.90;;;;;;6274828;22;20020;-85
2022/11/22 04:55:56;;;;;;;32.13;14.53;;;3.60;99.90;;;;;;6274524;22;20019;-85
2022/11/22 04:58:37;;;;;;;35.33;15.17;;;3.70;99.90;;;;;;6276675;22;20434;-85
2022/11/22 05:01:09;;;;;;;31.03;14.60;;;3.30;99.90;;;;;;6274963;22;20022;-85
2022/11/22 05:03:35;;;;;;;35.20;15.13;;;4.60;99.90;;;;;;6272462;22;20666;-85
2022/11/22 05:06:19;;;;;;;39.20;15.70;;;4.70;99.90;;;;;;6275532;22;20019;-85
2022/11/22 05:09:03;;;;;;;35.60;15.43;;;3.30;99.90;;;;;;6274850;22;20016;-85
2022/11/22 05:11:28;;;;;;;34.88;15.55;;;4.30;99.90;;;;;;6276571;22;20077;-85
2022/11/22 05:13:57;;;;;;;34.97;14.90;;;4.10;99.90;;;;;;6270839;22;20065;-85
2022/11/22 05:16:35;;;;;;;36.37;15.80;;;3.50;99.90;;;;;;6276209;22;20458;-85
2022/11/22 05:19:12;;;;;;;34.70;15.53;;;4.00;99.90;;;;;;6275856;22;20043;-85
2022/11/22 05:21:44;;;;;;;35.60;15.20;;;4.00;99.90;;;;;;6275137;22;20106;-85
2022/11/22 05:24:18;;;;;;;33.30;15.03;;;3.60;99.90;;;;;;6276504;22;20039;-85
2022/11/22 05:26:53;;;;;;;27.33;14.40;;;4.30;99.90;;;;;;6275265;22;20129;-85
2022/11/22 05:29:34;;;;;;;30.87;14.53;;;3.80;99.90;;;;;;6276819;22;20043;-85
2022/11/22 05:32:00;;;;;;;32.87;14.53;;;4.20;99.90;;;;;;6275558;22;20024;-85
2022/11/22 05:34:26;;;;;;;29.37;15.47;;;3.80;99.90;;;;;;6275345;22;20018;-85
2022/11/22 05:37:03;;;;;;;31.90;15.10;;;4.10;99.90;;;;;;6277368;22;20012;-85
2022/11/22 05:39:41;;;;;;;30.90;14.50;;;4.00;99.90;;;;;;6277215;22;20090;-85
2022/11/22 05:42:07;;;;;;;35.17;15.70;;;3.80;99.90;;;;;;6276457;22;20018;-85
2022/11/22 05:44:46;;;;;;;34.00;15.50;;;4.20;99.90;;;;;;6279758;22;20032;-85
2022/11/22 05:47:11;;;;;;;35.17;16.07;;;4.50;99.90;;;;;;6278527;22;20065;-85
2022/11/22 05:49:44;;;;;;;35.97;16.30;;;6.20;99.90;;;;;;6275549;22;20019;-85
2022/11/22 05:52:11;;;;;;;41.67;16.87;;;4.20;99.90;;;;;;6279545;22;20356;-85
2022/11/22 05:54:36;;;;;;;36.83;17.03;;;4.20;99.90;;;;;;6276779;22;20250;-85
2022/11/22 05:57:08;;;;;;;36.37;16.77;;;5.80;99.90;;;;;;6276446;22;20063;-85
2022/11/22 05:59:33;;;;;;;36.43;16.37;;;4.60;99.90;;;;;;6279666;22;20019;-85
2022/11/22 06:01:59;;;;;;;33.93;16.00;;;4.00;99.90;;;;;;6278332;22;20524;-85
2022/11/22 06:04:25;;;;;;;40.00;16.73;;;4.00;99.90;;;;;;6276144;22;20026;-86
2022/11/22 06:06:57;;;;;;;35.60;15.63;;;5.20;99.90;;;;;;6274137;22;20439;-86
2022/11/22 06:09:22;;;;;;;33.17;15.77;;;4.40;99.90;;;;;;6276892;22;20016;-85
2022/11/22 06:12:06;;;;;;;37.90;16.23;;;5.20;99.90;;;;;;6275412;22;20013;-85
2022/11/22 06:14:50;;;;;;;33.57;16.13;;;4.30;99.90;;;;;;6273781;22;20210;-85
2022/11/22 06:17:21;;;;;;;39.95;16.50;;;4.90;99.90;;;;;;6276461;22;20047;-85
2022/11/22 06:19:59;;;;;;;38.57;15.47;;;4.30;99.90;;;;;;6273622;22;20020;-85
2022/11/22 06:22:25;;;;;;;36.83;15.70;;;4.00;99.90;;;;;;6274386;22;20016;-85
2022/11/22 06:25:07;;;;;;;36.53;16.63;;;3.90;99.90;;;;;;6272832;22;20023;-86
2022/11/22 06:27:48;;;;;;;37.33;17.17;;;4.30;99.90;;;;;;6273148;22;20015;-85
2022/11/22 06:30:16;;;;;;;37.13;17.70;;;4.40;99.90;;;;;;6275395;22;20011;-85
2022/11/22 06:32:42;;;;;;;40.10;17.93;;;4.50;99.90;;;;;;6275260;22;20047;-85
2022/11/22 06:35:08;;;;;;;37.83;17.70;;;4.10;99.90;;;;;;6273028;22;20015;-85
2022/11/22 06:37:45;;;;;;;39.80;17.53;;;5.20;99.90;;;;;;6273547;22;20016;-85
2022/11/22 06:40:20;;;;;;;38.63;16.33;;;4.10;99.90;;;;;;6274718;22;20015;-85
2022/11/22 06:43:01;;;;;;;38.80;16.13;;;4.30;99.90;;;;;;6273343;22;20393;-85
2022/11/22 06:45:42;;;;;;;40.33;15.40;;;3.80;99.90;;;;;;6276067;22;20016;-86
2022/11/22 06:48:07;;;;;;;31.90;14.50;;;5.30;99.90;;;;;;6273502;22;20114;-85
2022/11/22 06:50:33;;;;;;;32.60;14.90;;;5.00;99.90;;;;;;6274043;22;20456;-85
2022/11/22 06:53:05;;;;;;;36.53;15.73;;;4.40;99.90;;;;;;6275911;22;20019;-86
2022/11/22 06:55:43;;;;;;;33.60;16.17;;;4.00;99.90;;;;;;6275096;22;20015;-85
2022/11/22 06:58:08;;;;;;;37.53;15.77;;;4.70;99.90;;;;;;6275928;22;20031;-85
2022/11/22 07:00:52;;;;;;;34.20;14.40;;;5.70;99.90;;;;;;6275919;22;20030;-86
2022/11/22 07:03:30;;;;;;;31.52;14.18;;;4.50;99.90;;;;;;6273376;22;20066;-85
2022/11/22 07:06:06;;;;;;;34.57;15.00;;;4.40;99.90;;;;;;6276403;22;20015;-85
2022/11/22 07:08:38;;;;;;;29.50;14.70;;;4.20;99.90;;;;;;6274799;22;20012;-85
2022/11/22 07:11:25;;;;;;;34.07;14.00;;;4.50;99.90;;;;;;6276439;22;20015;-86
2022/11/22 07:13:58;;;;;;;31.33;14.10;;;3.50;99.90;;;;;;6273680;22;20015;-85
2022/11/22 07:16:40;;;;;;;33.67;13.68;;;4.40;99.90;;;;;;6273580;22;20098;-86
2022/11/22 07:19:20;;;;;;;29.40;12.80;;;5.00;99.90;;;;;;6274485;22;20015;-87
2022/11/22 07:21:52;;;;;;;29.43;12.97;;;4.70;99.90;;;;;;6278567;22;20550;-85
2022/11/22 07:24:39;;;;;;;33.30;12.00;;;5.50;99.90;;;;;;6274559;22;20018;-82
2022/11/22 07:27:17;;;;;;;29.70;11.30;;;3.70;99.90;;;;;;6273699;22;20020;-82
2022/11/22 07:30:20;;;;;;;25.40;11.37;;;4.30;99.90;;;;;;6278123;22;20030;-82
2022/11/22 07:33:04;;;;;;;23.77;10.53;;;4.90;99.90;;;;;;6274152;22;20393;-83
2022/11/22 07:35:29;;;;;;;27.95;9.80;;;5.30;99.90;;;;;;6275344;22;20493;-83
2022/11/22 07:38:03;;;;;;;23.77;9.47;;;4.60;99.90;;;;;;6275094;22;20011;-83
2022/11/22 07:40:40;;;;;;;21.42;8.70;;;4.60;99.90;;;;;;6273992;22;20016;-83
2022/11/22 07:43:06;;;;;;;24.60;8.63;;;4.40;99.90;;;;;;6273119;22;20047;-83
2022/11/22 07:46:20;;;;;;;27.07;8.60;;;4.60;99.90;;;;;;6273366;22;20019;-84
2022/11/22 07:48:58;;;;;;;24.50;7.63;;;5.70;99.90;;;;;;6156739;23;20044;-82
2022/11/22 07:51:23;;;;;;;23.63;7.53;;;5.30;99.90;;;;;;6181163;22;20045;-83
2022/11/22 07:53:52;;;;;;;18.40;6.67;;;5.20;99.90;;;;;;6273486;22;20023;-82
2022/11/22 07:56:27;;;;;;;25.50;7.20;;;4.70;99.90;;;;;;6273930;22;20113;-82
2022/11/22 07:58:58;;;;;;;20.17;6.60;;;4.50;99.90;;;;;;6274939;22;20016;-83
2022/11/22 08:01:30;;;;;;;18.30;6.03;;;4.90;99.90;;;;;;6273558;22;20444;-82
2022/11/22 08:03:56;;;;;;;19.87;6.20;;;4.50;99.90;;;;;;6274115;22;20444;-82
2022/11/22 08:06:30;;;;;;;19.87;5.93;;;4.30;99.90;;;;;;6273135;22;20038;-82
2022/11/22 08:08:56;;;;;;;16.93;5.20;;;4.60;99.90;;;;;;6274399;22;20023;-82
2022/11/22 08:11:31;;;;;;;15.83;5.47;;;4.50;99.90;;;;;;6274760;22;20026;-82
2022/11/22 08:13:57;;;;;;;19.20;5.37;;;4.40;99.90;;;;;;6275116;22;20022;-82
2022/11/22 08:16:22;;;;;;;17.37;4.80;;;5.30;99.90;;;;;;6273790;22;20047;-82
2022/11/22 08:18:49;;;;;;;17.73;4.80;;;5.10;99.90;;;;;;6298068;22;20019;-82
2022/11/22 08:21:27;;;;;;;17.67;5.13;;;4.30;99.90;;;;;;6273063;22;20016;-82
2022/11/22 08:23:56;;;;;;;16.63;4.53;;;5.00;99.90;;;;;;6274675;22;20035;-82
2022/11/22 08:26:22;;;;;;;19.23;4.23;;;4.50;99.90;;;;;;6274272;22;20008;-82
2022/11/22 08:28:54;;;;;;;16.03;4.20;;;5.00;99.90;;;;;;6272488;22;20153;-82
2022/11/22 08:31:20;;;;;;;17.27;4.20;;;4.30;99.90;;;;;;6273005;22;20098;-82
2022/11/22 08:33:46;;;;;;;15.63;4.43;;;4.50;99.90;;;;;;6274255;22;20051;-82
2022/11/22 08:36:12;;;;;;;21.50;4.53;;;4.50;99.90;;;;;;6273368;22;20344;-82
2022/11/22 08:38:47;;;;;;;19.00;4.40;;;6.50;99.90;;;;;;6274232;22;20051;-84
2022/11/22 08:41:30;;;;;;;14.00;4.40;;;3.70;99.90;;;;;;6274817;22;20037;-83
2022/11/22 08:44:16;;;;;;;19.05;4.63;;;5.80;99.90;;;;;;6277347;22;20470;-84
2022/11/22 08:46:42;;;;;;;16.90;4.77;;;5.00;99.90;;;;;;6276294;22;20038;-82
2022/11/22 08:49:23;;;;;;;18.37;4.40;;;4.80;99.90;;;;;;6277486;22;20015;-82
2022/11/22 08:51:48;;;;;;;14.33;4.50;;;5.70;99.90;;;;;;6275106;22;20094;-82
2022/11/22 08:54:17;;;;;;;18.50;4.57;;;4.30;99.90;;;;;;6276303;22;20061;-82
2022/11/22 08:56:42;;;;;;;19.00;5.43;;;4.60;99.90;;;;;;6275457;22;20015;-82
2022/11/22 08:59:23;;;;;;;17.90;5.03;;;4.60;99.90;;;;;;6280951;22;20020;-83
2022/11/22 09:01:49;;;;;;;21.20;5.30;;;5.20;99.90;;;;;;6277676;22;20016;-83
2022/11/22 09:04:27;;;;;;;14.57;4.80;;;5.00;99.90;;;;;;6277112;22;20076;-82
2022/11/22 09:06:53;;;;;;;17.07;5.17;;;4.50;99.90;;;;;;6279502;22;20439;-82
2022/11/22 09:09:31;;;;;;;17.77;5.07;;;4.80;99.90;;;;;;6275555;22;20015;-82
2022/11/22 09:12:17;;;;;;;18.83;4.97;;;5.90;99.90;;;;;;6275671;22;20012;-82
2022/11/22 09:15:04;;;;;;;18.23;4.80;;;5.00;99.90;;;;;;6276295;22;20045;-82
2022/11/22 09:17:48;;;;;;;20.10;4.90;;;5.20;99.90;;;;;;6275523;22;20019;-82
2022/11/22 09:20:14;;;;;;;15.50;4.30;;;4.90;99.90;;;;;;6275092;22;20038;-83
2022/11/22 09:22:43;;;;;;;15.33;4.20;;;5.30;99.90;;;;;;6274078;22;20394;-83
2022/11/22 09:25:09;;;;;;;13.80;3.93;;;5.10;99.90;;;;;;6275585;22;20098;-86
2022/11/22 09:27:41;;;;;;;14.50;3.80;;;5.10;99.90;;;;;;6272305;22;20046;-86
2022/11/22 09:30:29;;;;;;;18.33;4.07;;;5.40;99.90;;;;;;6275348;22;20023;-86
2022/11/22 09:33:45;;;;;;;18.73;3.60;;;6.10;99.90;;;;;;6267568;22;20383;-86
2022/11/22 09:36:17;;;;;;;16.83;4.47;;;5.70;99.90;;;;;;6248732;22;20015;-86
2022/11/22 09:38:42;;;;;;;16.23;3.93;;;5.60;99.90;;;;;;6252053;22;20344;-85
2022/11/22 09:41:33;;;;;;;17.27;3.90;;;5.10;99.90;;;;;;6277540;22;20035;-86
2022/11/22 09:44:30;;;;;;;18.17;3.87;;;5.70;99.90;;;;;;6275981;22;20015;-85
2022/11/22 09:47:45;;;;;;;13.93;4.23;;;6.00;99.90;;;;;;6278405;22;20308;-85
2022/11/22 09:50:44;;;;;;;;;;;;;;;;;;;;;
2022/11/22 09:53:42;;;;;;;15.20;3.50;;;6.00;99.90;;;;;;6199092;22;20016;-87
2022/11/22 09:56:14;;;;;;;15.50;4.03;;;6.00;99.90;;;;;;6253524;22;20320;-88
2022/11/22 09:59:29;;;;;;;15.53;3.23;;;5.70;99.90;;;;;;6274140;22;20099;-87
2022/11/22 10:02:39;;;;;;;14.17;3.00;;;6.30;99.90;;;;;;6275381;22;20508;-88
2022/11/22 10:05:24;;;;;;;14.53;3.13;;;6.30;99.90;;;;;;6275737;22;20016;-88
2022/11/22 10:11:39;;;;;;;17.20;3.27;;;6.30;99.90;;;;;;6249348;22;20035;-85
2022/11/22 10:14:52;;;;;;;12.47;3.33;;;6.30;99.90;;;;;;6301809;22;20024;-87
2022/11/22 10:17:55;;;;;;;11.13;2.83;;;5.90;99.90;;;;;;6272004;22;20046;-88
2022/11/22 10:20:41;;;;;;;13.00;3.17;;;6.30;99.90;;;;;;6274105;22;20113;-88
2022/11/22 10:29:34;;;;;;;10.23;2.63;;;6.40;99.90;;;;;;6284809;22;20023;-87
2022/11/22 10:32:09;;;;;;;13.27;2.73;;;6.90;99.90;;;;;;6288635;22;20022;-87
2022/11/22 10:35:15;;;;;;;13.23;2.50;;;7.30;99.90;;;;;;6274534;22;20128;-87
2022/11/22 10:38:24;;;;;;;11.90;2.83;;;6.50;99.90;;;;;;6276740;22;20015;-87
2022/11/22 10:41:51;;;;;;;11.07;2.50;;;6.50;99.90;;;;;;6275171;22;20550;-86
2022/11/22 10:44:52;;;;;;;12.37;2.80;;;6.60;99.90;;;;;;6258701;22;20066;-87
2022/11/22 10:48:00;;;;;;;13.17;2.60;;;7.00;99.90;;;;;;6274107;22;20016;-87
2022/11/22 10:51:30;;;;;;;14.00;2.83;;;6.90;99.90;;;;;;6262816;22;20016;-86
2022/11/22 10:54:29;;;;;;;10.00;2.50;;;7.80;99.90;;;;;;6246240;22;20317;-87
2022/11/22 10:57:20;;;;;;;13.03;2.73;;;7.20;99.90;;;;;;6276198;22;20027;-87
2022/11/22 11:00:30;;;;;;;10.10;2.70;;;8.20;99.90;;;;;;6273902;22;20448;-87
2022/11/22 11:06:34;;;;;;;10.33;2.73;;;7.30;99.90;;;;;;6304451;22;20355;-85
2022/11/22 11:13:17;;;;;;;10.38;2.53;;;7.20;99.90;;;;;;6278382;22;20473;-88
2022/11/22 11:15:53;;;;;;;10.63;2.70;;;7.20;99.90;;;;;;6277916;22;20356;-88
2022/11/22 11:21:38;;;;;;;8.47;2.60;;;7.40;99.90;;;;;;6305291;22;20023;-85
2022/11/22 11:24:16;;;;;;;11.37;2.90;;;8.30;99.90;;;;;;6278639;22;20011;-86
2022/11/22 11:26:59;;;;;;;10.27;2.30;;;7.10;99.90;;;;;;6308287;22;20015;-85
2022/11/22 11:29:56;;;;;;;9.53;2.13;;;8.50;99.90;;;;;;6278154;22;20011;-84
2022/11/22 11:33:09;;;;;;;12.30;2.40;;;7.40;99.90;;;;;;6279777;22;20098;-85
2022/11/22 11:35:39;;;;;;;8.07;2.27;;;7.60;99.90;;;;;;6156019;23;20021;-83
2022/11/22 11:38:34;;;;;;;12.60;2.63;;;7.20;99.90;;;;;;6157018;23;20075;-85
2022/11/22 11:41:29;;;;;;;10.73;2.53;;;7.00;99.90;;;;;;6304848;22;20026;-83
2022/11/22 11:44:00;;;;;;;8.80;2.70;;;6.70;99.90;;;;;;6277897;22;20015;-85
2022/11/22 11:47:06;;;;;;;10.03;2.50;;;6.90;99.90;;;;;;6278875;22;20011;-84
2022/11/22 11:50:10;;;;;;;9.73;2.63;;;9.10;99.90;;;;;;6277484;22;20015;-84
2022/11/22 11:53:03;;;;;;;11.73;2.53;;;6.80;99.90;;;;;;6277664;22;20471;-84
2022/11/22 11:55:41;;;;;;;9.30;2.80;;;7.30;99.90;;;;;;6305315;22;20067;-85
2022/11/22 11:58:27;;;;;;;11.97;3.00;;;7.10;99.90;;;;;;6305498;22;20042;-85
2022/11/22 12:01:18;;;;;;;11.90;3.07;;;6.30;99.90;;;;;;6278594;22;20019;-84
2022/11/22 12:04:05;;;;;;;11.37;2.70;;;7.40;99.90;;;;;;6303640;22;20015;-84
2022/11/22 12:07:21;;;;;;;10.83;2.90;;;7.20;99.90;;;;;;6304414;22;20397;-84
2022/11/22 12:09:55;;;;;;;9.90;2.33;;;6.70;99.90;;;;;;6305721;22;20577;-86
2022/11/22 12:13:04;;;;;;;11.90;2.70;;;8.20;99.90;;;;;;6310171;22;20020;-86
2022/11/22 12:16:08;;;;;;;12.67;2.83;;;7.40;99.90;;;;;;6281069;22;20362;-86
2022/11/22 12:18:42;;;;;;;12.83;2.50;;;7.60;99.90;;;;;;6280179;22;20030;-86
2022/11/22 12:21:46;;;;;;;12.77;2.90;;;7.30;99.90;;;;;;6286802;22;20026;-85
2022/11/22 12:24:41;;;;;;;10.80;2.90;;;7.50;99.90;;;;;;6305984;22;20023;-86
2022/11/22 12:27:24;;;;;;;12.30;2.80;;;8.50;99.90;;;;;;6278175;22;20031;-86
2022/11/22 12:39:48;;;;;;;20.00;3.53;;;7.40;99.90;;;;;;6245544;23;20028;-85
2022/11/22 12:43:03;;;;;;;11.83;2.63;;;7.50;99.90;;;;;;6245630;23;20024;-86
2022/11/22 12:46:07;;;;;;;;;;;7.00;99.90;;;;;;6218526;23;20023;-85
2022/11/22 12:49:42;;;;;;;9.23;2.60;;;6.70;99.90;;;;;;6218735;23;20359;-85
2022/11/22 12:52:41;;;;;;;9.77;2.35;;;8.00;99.90;;;;;;6245899;23;20016;-84
2022/11/22 12:56:01;;;;;;;8.87;2.40;;;7.30;99.90;;;;;;6219782;23;20340;-83
2022/11/22 12:58:53;;;;;;;13.40;2.53;;;7.40;99.90;;;;;;6099794;23;20092;-84
2022/11/22 13:01:40;;;;;;;7.17;2.00;;;7.20;99.90;;;;;;6098421;23;20093;-84
2022/11/22 13:04:08;;;;;;;10.10;2.67;;;7.10;99.90;;;;;;6123807;23;20061;-84
2022/11/22 13:07:12;;;;;;;8.10;2.10;;;6.90;99.90;;;;;;6098842;23;20013;-84
2022/11/22 13:10:14;;;;;;;8.77;1.97;;;7.40;99.90;;;;;;6108460;23;20049;-84
2022/11/22 13:13:00;;;;;;;7.87;1.80;;;7.30;99.90;;;;;;6152861;23;20017;-84
2022/11/22 13:15:35;;;;;;;8.70;2.17;;;7.10;99.90;;;;;;6152066;23;20097;-84
2022/11/22 13:18:11;;;;;;;8.03;2.00;;;6.70;99.90;;;;;;6154005;23;20430;-85
2022/11/22 13:20:41;;;;;;;8.83;2.37;;;8.60;99.90;;;;;;6182603;23;20042;-84
2022/11/22 13:23:38;;;;;;;8.70;2.53;;;9.10;99.90;;;;;;6218298;23;20515;-84
2022/11/22 13:26:30;;;;;;;7.60;2.13;;;6.40;99.90;;;;;;6219201;23;20383;-83
2022/11/22 13:28:56;;;;;;;10.03;2.83;;;7.20;99.90;;;;;;6098500;23;20010;-84
2022/11/22 13:31:28;;;;;;;7.85;2.50;;;7.20;99.90;;;;;;6121905;23;20022;-84
2022/11/22 13:34:01;;;;;;;10.07;3.17;;;7.10;99.90;;;;;;6165790;23;20095;-84
2022/11/22 13:36:27;;;;;;;12.43;4.10;;;;;;;;;;6217407;23;20016;-84
2022/11/22 13:39:24;;;;;;;13.40;4.60;;;7.10;99.90;;;;;;6218096;23;20500;-84
2022/11/22 13:42:06;;;;;;;12.40;4.07;;;8.10;99.90;;;;;;6217739;23;20103;-84
2022/11/22 13:48:28;;;;;;;8.57;2.60;;;7.80;99.90;;;;;;6306626;22;20021;-84
2022/11/22 13:52:04;;;;;;;8.70;2.50;;;7.00;99.90;;;;;;6280636;22;20023;-85
2022/11/22 13:54:55;;;;;;;7.80;2.10;;;7.00;99.90;;;;;;6278758;22;20344;-83
2022/11/22 13:57:40;;;;;;;9.17;2.00;;;6.90;99.90;;;;;;6283630;22;20042;-83
2022/11/22 14:00:20;;;;;;;8.20;2.00;;;6.60;99.90;;;;;;6304590;22;20019;-83
2022/11/22 14:03:07;;;;;;;6.87;1.97;;;6.70;99.90;;;;;;6279471;22;20060;-83
2022/11/22 14:05:34;;;;;;;8.60;1.97;;;6.80;99.90;;;;;;6279564;22;20023;-83
2022/11/22 14:08:27;;;;;;;6.65;1.88;;;8.10;99.90;;;;;;6306766;22;20443;-82
2022/11/22 14:11:38;;;;;;;10.98;2.20;;;6.70;99.90;;;;;;6279021;22;20080;-83
2022/11/22 14:15:02;;;;;;;9.98;2.10;;;6.80;99.90;;;;;;6279770;22;20015;-83
2022/11/22 14:17:37;;;;;;;9.47;1.80;;;6.90;99.90;;;;;;6156077;23;20016;-82
2022/11/22 14:20:47;;;;;;;7.40;2.17;;;6.70;99.90;;;;;;6157401;23;20017;-82
2022/11/22 14:23:48;;;;;;;9.27;2.20;;;6.70;99.90;;;;;;6271973;22;20336;-83
2022/11/22 14:26:46;;;;;;;8.47;2.37;;;6.20;99.90;;;;;;6278924;22;20478;-82
2022/11/22 14:29:47;;;;;;;8.73;2.20;;;6.80;99.90;;;;;;6279997;22;20474;-83
2022/11/22 14:32:33;;;;;;;12.10;2.30;;;5.90;99.90;;;;;;6306242;22;20390;-83
2022/11/22 14:35:26;;;;;;;10.63;2.27;;;6.10;99.90;;;;;;6279714;22;20061;-83
2022/11/22 14:38:23;;;;;;;9.93;2.37;;;6.80;99.90;;;;;;6279433;22;20343;-83
2022/11/22 14:40:49;;;;;;;9.43;2.50;;;6.90;99.90;;;;;;6278976;22;20280;-83
2022/11/22 14:43:26;;;;;;;9.50;2.20;;;8.10;99.90;;;;;;6306872;22;20013;-83
2022/11/22 14:46:15;;;;;;;8.40;2.20;;;6.70;99.90;;;;;;6301380;22;20019;-83
2022/11/22 14:49:31;;;;;;;8.90;2.00;;;6.60;99.90;;;;;;6278856;22;20443;-83
2022/11/22 14:52:25;;;;;;;11.53;2.50;;;6.20;99.90;;;;;;6275459;22;20019;-83
2022/11/22 14:55:11;;;;;;;9.83;2.20;;;6.00;99.90;;;;;;6305476;22;20011;-83
2022/11/22 14:58:00;;;;;;;10.35;2.30;;;6.80;99.90;;;;;;6278364;22;20022;-83
2022/11/22 15:00:47;;;;;;;10.83;2.43;;;6.70;99.90;;;;;;6305160;22;20360;-83
2022/11/22 15:07:51;;;;;;;9.80;2.20;;;6.30;99.90;;;;;;6242829;22;20027;-83
2022/11/22 15:10:54;;;;;;;8.83;2.40;;;7.40;99.90;;;;;;6277881;22;20051;-84
2022/11/22 15:13:41;;;;;;;7.73;1.93;;;6.70;99.90;;;;;;6277569;22;20019;-83
2022/11/22 15:16:48;;;;;;;9.23;2.27;;;6.90;99.90;;;;;;6307484;22;20011;-83
2022/11/22 15:19:37;;;;;;;10.23;2.00;;;6.90;99.90;;;;;;6219376;22;20374;-83
2022/11/22 15:22:25;;;;;;;7.53;1.97;;;6.40;99.90;;;;;;6305051;22;20470;-83
2022/11/22 15:25:15;;;;;;;7.20;2.10;;;7.40;99.90;;;;;;6278195;22;20019;-83
2022/11/22 15:27:45;;;;;;;10.10;2.20;;;6.60;99.90;;;;;;6311710;22;20007;-83
2022/11/22 15:36:50;;;;;;;8.70;2.17;;;6.40;99.90;;;;;;6279156;22;20335;-84
2022/11/22 15:39:29;;;;;;;8.00;2.20;;;6.90;99.90;;;;;;6279049;22;20026;-84
2022/11/22 15:42:15;;;;;;;9.17;2.40;;;6.30;99.90;;;;;;6277719;22;20057;-84
2022/11/22 15:44:53;;;;;;;8.00;2.23;;;6.90;99.90;;;;;;6278793;22;20016;-85
2022/11/22 15:47:25;;;;;;;8.17;1.97;;;8.40;99.90;;;;;;6278530;22;20061;-85
2022/11/22 15:50:00;;;;;;;8.23;2.27;;;7.20;99.90;;;;;;6304663;22;20011;-85
2022/11/22 15:52:51;;;;;;;9.27;2.10;;;6.40;99.90;;;;;;6278754;22;20019;-84
2022/11/22 15:55:23;;;;;;;10.87;2.37;;;7.00;99.90;;;;;;6305844;22;20026;-84
2022/11/22 15:57:58;;;;;;;9.20;2.23;;;8.30;99.90;;;;;;6305230;22;20019;-84
2022/11/22 16:00:32;;;;;;;8.40;2.20;;;5.90;99.90;;;;;;6304778;22;20019;-84
2022/11/22 16:03:43;;;;;;;12.63;2.55;;;6.00;99.90;;;;;;6278053;22;20111;-85
2022/11/22 16:06:21;;;;;;;8.80;2.00;;;6.50;99.90;;;;;;6224262;22;20026;-86
2022/11/22 16:08:54;;;;;;;8.87;2.20;;;7.20;99.90;;;;;;6278899;22;20107;-85
2022/11/22 16:11:47;;;;;;;9.03;2.23;;;6.90;99.90;;;;;;6305540;22;20507;-85
2022/11/22 16:14:52;;;;;;;8.10;1.93;;;5.70;99.90;;;;;;6277847;22;20058;-85
2022/11/22 16:17:50;;;;;;;9.90;2.00;;;6.40;99.90;;;;;;6277734;22;20098;-85
2022/11/22 16:20:47;;;;;;;9.10;2.10;;;6.60;99.90;;;;;;6305755;22;20019;-86
2022/11/22 16:23:27;;;;;;;9.80;1.90;;;6.70;99.90;;;;;;6278331;22;20331;-85
2022/11/22 16:26:29;;;;;;;8.40;2.00;;;5.80;99.90;;;;;;6277901;22;20017;-86
2022/11/22 16:29:39;;;;;;;8.80;2.33;;;6.60;99.90;;;;;;6278642;22;20050;-84
2022/11/22 16:32:15;;;;;;;7.73;2.20;;;6.70;99.90;;;;;;6180094;23;20025;-85
2022/11/22 16:34:46;;;;;;;8.20;1.97;;;6.90;99.90;;;;;;6200159;22;20034;-86
2022/11/22 16:37:25;;;;;;;9.43;2.00;;;6.30;99.90;;;;;;6290210;22;20027;-86
2022/11/22 16:39:54;;;;;;;8.27;2.10;;;7.10;99.90;;;;;;6271287;22;20028;-87
2022/11/22 16:42:54;;;;;;;7.80;1.90;;;6.30;99.90;;;;;;6273594;22;22538;-87
2022/11/22 16:46:20;;;;;;;;;;;;;;;;;;;;;
2022/11/22 16:49:23;;;;;;;7.93;2.20;;;6.70;99.90;;;;;;6187495;22;20574;-89
2022/11/22 23:11:11;;;;;;;26.77;16.37;;;7.80;99.90;;;;;;6238946;23;20071;-89
2022/11/22 23:28:54;;;;;;;29.93;16.50;;;6.80;99.90;;;;;;6305085;22;20023;-89
2022/11/22 23:46:31;;;;;;;29.20;16.30;;;6.40;99.90;;;;;;6306130;22;20039;-89
2022/11/22 23:55:11;;;;;;;29.53;16.57;;;6.80;99.90;;;;;;6278407;22;20024;-89
